Clear Sky — 3FKB7 — position and weather

sailwx.info

Track history (hours):
 
Tides and Currents Weather Stations Pressure Air Temp Water Temp Dewpoint Dewpoint Depression Visibility Wind Speed Wind Dir Waves Ship Positions

Clear Sky

Last reported at 2018-Jul-08 08:07 UTC. Time now 2018-Jul-19 11:50 UTC.
Position N 30°49' E 032°19'.
Warning: this ship's position is 11 days out of date.

Length 200 m; draft 10.5 m.

Type: Cargo ship. MMSI: 355077000.

Date/timePositionNaut miles runAvg speedWind from/ knotsBaromVisibWave heightAir tempDewpointWater temp
2018-Jul-08 08:07N 30°49' E 032°19'3 7.2
2018-Jul-08 07:41N 30°52' E 032°19'210.1
2018-Jul-08 07:30N 30°54' E 032°19'4 8.7
2018-Jul-08 07:00N 30°59' E 032°19'5 8.7
2018-Jul-08 06:22N 31°04' E 032°19'3 9.2
2018-Jul-08 06:00N 31°07' E 032°19'5 8.7
2018-Jul-08 05:26N 31°12' E 032°20'2 5.2
2018-Jul-08 05:00N 31°14' E 032°21'3 6.4
2018-Jul-08 04:29N 31°17' E 032°22'4 8.1
2018-Jul-08 03:59N 31°21' E 032°23'3 6.9
2018-Jul-08 03:30N 31°24' E 032°21'3 6.6
2018-Jul-08 02:58N 31°23' E 032°17'0 0.1
2018-Jul-07 21:01N 31°23' E 032°17'0 0.0
2018-Jul-07 16:42N 31°23' E 032°17'1 3.1
2018-Jul-07 16:30N 31°23' E 032°18'2 4.6
2018-Jul-07 16:00N 31°25' E 032°18'5 9.3
2018-Jul-07 15:30N 31°30' E 032°16'4 6.4
2018-Jul-07 14:49N 31°33' E 032°12'3 8.4
2018-Jul-07 14:26N 31°35' E 032°09'26 8.6
2018-Jul-07 11:26N 31°50' E 031°45'4 8.7
2018-Jul-07 11:00N 31°51' E 031°41'  
2018-Jul-04 13:50N 35°48' E 016°13'613.7
2018-Jul-04 13:22N 35°50' E 016°05'1013.5
2018-Jul-04 12:39N 35°53' E 015°54'213.5
2018-Jul-04 12:30N 35°53' E 015°52'713.7
2018-Jul-04 12:00N 35°56' E 015°44'1713.5
2018-Jul-04 10:46N 35°59' E 015°23'413.4
2018-Jul-04 10:30N 36°00' E 015°19'813.4
2018-Jul-04 09:56N 36°02' E 015°10'613.5
2018-Jul-04 09:30N 36°04' E 015°03'713.7
2018-Jul-04 09:00N 36°06' E 014°55'714.0
2018-Jul-04 08:30N 36°08' E 014°47'714.2
2018-Jul-04 08:00N 36°10' E 014°39'713.9
2018-Jul-04 07:28N 36°14' E 014°30'613.7
2018-Jul-04 07:00N 36°16' E 014°23'713.6
2018-Jul-04 06:30N 36°19' E 014°16'713.5
2018-Jul-04 06:00N 36°22' E 014°08'713.6
2018-Jul-04 05:30N 36°24' E 013°60'35113.0
2018-Jul-03 02:31N 37°18' E 006°46'012.5
2018-Jul-03 02:29N 37°18' E 006°46'613.0
2018-Jul-03 02:00N 37°18' E 006°38'813.4
2018-Jul-03 01:25N 37°17' E 006°28'613.5
2018-Jul-03 01:00N 37°17' E 006°21'713.3
2018-Jul-03 00:30N 37°16' E 006°13'713.3
2018-Jul-03 00:00N 37°16' E 006°05'713.0
2018-Jul-02 23:29N 37°15' E 005°56'613.0
2018-Jul-02 23:00N 37°14' E 005°48'713.1
2018-Jul-02 22:30N 37°14' E 005°40'613.1
2018-Jul-02 22:00N 37°14' E 005°32'2013.2
2018-Jul-02 20:28N 37°14' E 005°06'813.3
2018-Jul-02 19:54N 37°13' E 004°57'613.4
2018-Jul-02 19:28N 37°13' E 004°50'913.6
2018-Jul-02 18:49N 37°12' E 004°39'913.6
2018-Jul-02 18:11N 37°10' E 004°28'513.7
2018-Jul-02 17:50N 37°10' E 004°22'613.8
2018-Jul-02 17:25N 37°09' E 004°15'613.8
2018-Jul-02 17:00N 37°08' E 004°08'713.9
2018-Jul-02 16:30N 37°07' E 003°59'713.6
2018-Jul-02 15:59N 37°06' E 003°50'613.0
2018-Jul-02 15:30N 37°05' E 003°43'612.3
2018-Jul-02 15:00N 37°04' E 003°35'612.1
2018-Jul-02 14:30N 37°03' E 003°28'612.5
2018-Jul-02 14:00N 37°02' E 003°20'713.1
2018-Jul-02 13:30N 37°00' E 003°12'713.3
2018-Jul-02 13:00N 36°59' E 003°04'713.3
2018-Jul-02 12:30N 36°58' E 002°55'713.6
2018-Jul-02 12:00N 36°57' E 002°47'713.8
2018-Jul-02 11:30N 36°55' E 002°39'713.9
2018-Jul-02 10:59N 36°53' E 002°30'813.9
2018-Jul-02 10:24N 36°52' E 002°20'512.7
2018-Jul-02 10:00N 36°51' E 002°14'713.5
2018-Jul-02 09:30N 36°50' E 002°05'713.7
2018-Jul-02 08:59N 36°49' E 001°56'4114.2
2018-Jul-02 06:07N 36°44' E 001°06'214.7
2018-Jul-02 06:00N 36°44' E 001°04'914.4
2018-Jul-02 05:23N 36°42' E 000°53'614.4
2018-Jul-02 04:59N 36°41' E 000°46'714.2
2018-Jul-02 04:28N 36°40' E 000°37'714.1
2018-Jul-02 03:59N 36°39' E 000°29'714.0
2018-Jul-02 03:30N 36°37' E 000°21'813.9
2018-Jul-02 02:54N 36°36' E 000°10'913.8
2018-Jul-02 02:15N 36°35' W 000°01'713.7
2018-Jul-02 01:43N 36°33' W 000°10'313.6
2018-Jul-02 01:30N 36°33' W 000°13'813.7
2018-Jul-02 00:53N 36°32' W 000°24'513.8
2018-Jul-02 00:30N 36°31' W 000°30'713.7
2018-Jul-01 23:59N 36°30' W 000°39'21913.1
2018-Jul-01 07:16N 36°06' W 005°09'413.4
2018-Jul-01 07:00N 36°06' W 005°13'612.7
2018-Jul-01 06:31N 36°06' W 005°21'1 2.8
2018-Jul-01 05:59N 36°07' W 005°22'0 0.0
2018-Jul-01 05:29N 36°07' W 005°22'0 0.1
2018-Jul-01 04:59N 36°07' W 005°22'0 0.1
2018-Jul-01 04:29N 36°07' W 005°22'0 0.0
2018-Jul-01 03:59N 36°07' W 005°22'0 0.0
2018-Jul-01 03:29N 36°07' W 005°22'0 0.0
2018-Jul-01 02:59N 36°07' W 005°22'0 0.0
2018-Jul-01 02:23N 36°07' W 005°22'0 0.1
2018-Jul-01 01:59N 36°07' W 005°22'0 0.1
2018-Jul-01 01:29N 36°07' W 005°22'0 0.2
2018-Jul-01 00:59N 36°07' W 005°22'0 0.7
2018-Jul-01 00:30N 36°07' W 005°22'3 5.5
2018-Jul-01 00:00N 36°04' W 005°21'3 6.9
2018-Jun-30 23:30N 36°01' W 005°19'5 9.8
2018-Jun-30 23:00N 35°58' W 005°24'4 8.7
2018-Jun-30 22:30N 35°57' W 005°29'712.4
2018-Jun-30 21:57N 35°55' W 005°38'811.6
2018-Jun-30 21:18N 35°55' W 005°47'58613.4
2018-Jun-29 01:26N 28°28' W 013°14'713.6
2018-Jun-29 00:54N 28°22' W 013°19'613.6
2018-Jun-29 00:29N 28°18' W 013°24'713.4
2018-Jun-28 23:59N 28°13' W 013°28'713.5
2018-Jun-28 23:30N 28°08' W 013°33'713.4
2018-Jun-28 22:59N 28°02' W 013°38'813.6
2018-Jun-28 22:26N 27°56' W 013°43'613.7
2018-Jun-28 22:00N 27°52' W 013°48'713.7
2018-Jun-28 21:29N 27°46' W 013°53'613.4
2018-Jun-28 21:00N 27°41' W 013°57'713.5
2018-Jun-28 20:30N 27°36' W 014°02'713.4
2018-Jun-28 20:00N 27°31' W 014°06'713.8
2018-Jun-28 19:30N 27°25' W 014°11'713.8
2018-Jun-28 18:57N 27°19' W 014°17'613.3
2018-Jun-28 18:30N 27°15' W 014°21'813.0
2018-Jun-28 17:54N 27°08' W 014°26'712.8
2018-Jun-28 17:22N 27°03' W 014°31'512.8
2018-Jun-28 17:00N 26°60' W 014°35'  
Track history (hours):
 
Tides and Currents Weather Stations Pressure Air Temp Water Temp Dewpoint Dewpoint Depression Visibility Wind Speed Wind Dir Waves Ship Positions

Clear Sky

Last reported at 2018-Jul-08 08:07 UTC. Time now 2018-Jul-19 11:50 UTC.
Position N 30°49' E 032°19'.
Warning: this ship's position is 11 days out of date.

Length 200 m; draft 10.5 m.

Type: Cargo ship. MMSI: 355077000.

Date/timePositionNaut miles runAvg speedWind from/ knotsBaromVisibWave heightAir tempDewpointWater temp
2018-Jul-08 08:07N 30°49' E 032°19'3 7.2
2018-Jul-08 07:41N 30°52' E 032°19'210.1
2018-Jul-08 07:30N 30°54' E 032°19'4 8.7
2018-Jul-08 07:00N 30°59' E 032°19'5 8.7
2018-Jul-08 06:22N 31°04' E 032°19'3 9.2
2018-Jul-08 06:00N 31°07' E 032°19'5 8.7
2018-Jul-08 05:26N 31°12' E 032°20'2 5.2
2018-Jul-08 05:00N 31°14' E 032°21'3 6.4
2018-Jul-08 04:29N 31°17' E 032°22'4 8.1
2018-Jul-08 03:59N 31°21' E 032°23'3 6.9
2018-Jul-08 03:30N 31°24' E 032°21'3 6.6
2018-Jul-08 02:58N 31°23' E 032°17'0 0.1
2018-Jul-07 21:01N 31°23' E 032°17'0 0.0
2018-Jul-07 16:42N 31°23' E 032°17'1 3.1
2018-Jul-07 16:30N 31°23' E 032°18'2 4.6
2018-Jul-07 16:00N 31°25' E 032°18'5 9.3
2018-Jul-07 15:30N 31°30' E 032°16'4 6.4
2018-Jul-07 14:49N 31°33' E 032°12'3 8.4
2018-Jul-07 14:26N 31°35' E 032°09'26 8.6
2018-Jul-07 11:26N 31°50' E 031°45'4 8.7
2018-Jul-07 11:00N 31°51' E 031°41'  
2018-Jul-04 13:50N 35°48' E 016°13'613.7
2018-Jul-04 13:22N 35°50' E 016°05'1013.5
2018-Jul-04 12:39N 35°53' E 015°54'213.5
2018-Jul-04 12:30N 35°53' E 015°52'713.7
2018-Jul-04 12:00N 35°56' E 015°44'1713.5
2018-Jul-04 10:46N 35°59' E 015°23'413.4
2018-Jul-04 10:30N 36°00' E 015°19'813.4
2018-Jul-04 09:56N 36°02' E 015°10'613.5
2018-Jul-04 09:30N 36°04' E 015°03'713.7
2018-Jul-04 09:00N 36°06' E 014°55'714.0
2018-Jul-04 08:30N 36°08' E 014°47'714.2
2018-Jul-04 08:00N 36°10' E 014°39'713.9
2018-Jul-04 07:28N 36°14' E 014°30'613.7
2018-Jul-04 07:00N 36°16' E 014°23'713.6
2018-Jul-04 06:30N 36°19' E 014°16'713.5
2018-Jul-04 06:00N 36°22' E 014°08'713.6
2018-Jul-04 05:30N 36°24' E 013°60'35113.0
2018-Jul-03 02:31N 37°18' E 006°46'012.5
2018-Jul-03 02:29N 37°18' E 006°46'613.0
2018-Jul-03 02:00N 37°18' E 006°38'813.4
2018-Jul-03 01:25N 37°17' E 006°28'613.5
2018-Jul-03 01:00N 37°17' E 006°21'713.3
2018-Jul-03 00:30N 37°16' E 006°13'713.3
2018-Jul-03 00:00N 37°16' E 006°05'713.0
2018-Jul-02 23:29N 37°15' E 005°56'613.0
2018-Jul-02 23:00N 37°14' E 005°48'713.1
2018-Jul-02 22:30N 37°14' E 005°40'613.1
2018-Jul-02 22:00N 37°14' E 005°32'2013.2
2018-Jul-02 20:28N 37°14' E 005°06'813.3
2018-Jul-02 19:54N 37°13' E 004°57'613.4
2018-Jul-02 19:28N 37°13' E 004°50'913.6
2018-Jul-02 18:49N 37°12' E 004°39'913.6
2018-Jul-02 18:11N 37°10' E 004°28'513.7
2018-Jul-02 17:50N 37°10' E 004°22'613.8
2018-Jul-02 17:25N 37°09' E 004°15'613.8
2018-Jul-02 17:00N 37°08' E 004°08'713.9
2018-Jul-02 16:30N 37°07' E 003°59'713.6
2018-Jul-02 15:59N 37°06' E 003°50'613.0
2018-Jul-02 15:30N 37°05' E 003°43'612.3
2018-Jul-02 15:00N 37°04' E 003°35'612.1
2018-Jul-02 14:30N 37°03' E 003°28'612.5
2018-Jul-02 14:00N 37°02' E 003°20'713.1
2018-Jul-02 13:30N 37°00' E 003°12'713.3
2018-Jul-02 13:00N 36°59' E 003°04'713.3
2018-Jul-02 12:30N 36°58' E 002°55'713.6
2018-Jul-02 12:00N 36°57' E 002°47'713.8
2018-Jul-02 11:30N 36°55' E 002°39'713.9
2018-Jul-02 10:59N 36°53' E 002°30'813.9
2018-Jul-02 10:24N 36°52' E 002°20'512.7
2018-Jul-02 10:00N 36°51' E 002°14'713.5
2018-Jul-02 09:30N 36°50' E 002°05'713.7
2018-Jul-02 08:59N 36°49' E 001°56'4114.2
2018-Jul-02 06:07N 36°44' E 001°06'214.7
2018-Jul-02 06:00N 36°44' E 001°04'914.4
2018-Jul-02 05:23N 36°42' E 000°53'614.4
2018-Jul-02 04:59N 36°41' E 000°46'714.2
2018-Jul-02 04:28N 36°40' E 000°37'714.1
2018-Jul-02 03:59N 36°39' E 000°29'714.0
2018-Jul-02 03:30N 36°37' E 000°21'813.9
2018-Jul-02 02:54N 36°36' E 000°10'913.8
2018-Jul-02 02:15N 36°35' W 000°01'713.7
2018-Jul-02 01:43N 36°33' W 000°10'313.6
2018-Jul-02 01:30N 36°33' W 000°13'813.7
2018-Jul-02 00:53N 36°32' W 000°24'513.8
2018-Jul-02 00:30N 36°31' W 000°30'713.7
2018-Jul-01 23:59N 36°30' W 000°39'21913.1
2018-Jul-01 07:16N 36°06' W 005°09'413.4
2018-Jul-01 07:00N 36°06' W 005°13'612.7
2018-Jul-01 06:31N 36°06' W 005°21'1 2.8
2018-Jul-01 05:59N 36°07' W 005°22'0 0.0
2018-Jul-01 05:29N 36°07' W 005°22'0 0.1
2018-Jul-01 04:59N 36°07' W 005°22'0 0.1
2018-Jul-01 04:29N 36°07' W 005°22'0 0.0
2018-Jul-01 03:59N 36°07' W 005°22'0 0.0
2018-Jul-01 03:29N 36°07' W 005°22'0 0.0
2018-Jul-01 02:59N 36°07' W 005°22'0 0.0
2018-Jul-01 02:23N 36°07' W 005°22'0 0.1
2018-Jul-01 01:59N 36°07' W 005°22'0 0.1
2018-Jul-01 01:29N 36°07' W 005°22'0 0.2
2018-Jul-01 00:59N 36°07' W 005°22'0 0.7
2018-Jul-01 00:30N 36°07' W 005°22'3 5.5
2018-Jul-01 00:00N 36°04' W 005°21'3 6.9
2018-Jun-30 23:30N 36°01' W 005°19'5 9.8
2018-Jun-30 23:00N 35°58' W 005°24'4 8.7
2018-Jun-30 22:30N 35°57' W 005°29'712.4
2018-Jun-30 21:57N 35°55' W 005°38'811.6
2018-Jun-30 21:18N 35°55' W 005°47'58613.4
2018-Jun-29 01:26N 28°28' W 013°14'713.6
2018-Jun-29 00:54N 28°22' W 013°19'613.6
2018-Jun-29 00:29N 28°18' W 013°24'713.4
2018-Jun-28 23:59N 28°13' W 013°28'713.5
2018-Jun-28 23:30N 28°08' W 013°33'713.4
2018-Jun-28 22:59N 28°02' W 013°38'813.6
2018-Jun-28 22:26N 27°56' W 013°43'613.7
2018-Jun-28 22:00N 27°52' W 013°48'713.7
2018-Jun-28 21:29N 27°46' W 013°53'613.4
2018-Jun-28 21:00N 27°41' W 013°57'713.5
2018-Jun-28 20:30N 27°36' W 014°02'713.4
2018-Jun-28 20:00N 27°31' W 014°06'713.8
2018-Jun-28 19:30N 27°25' W 014°11'713.8
2018-Jun-28 18:57N 27°19' W 014°17'613.3
2018-Jun-28 18:30N 27°15' W 014°21'813.0
2018-Jun-28 17:54N 27°08' W 014°26'712.8
2018-Jun-28 17:22N 27°03' W 014°31'512.8
2018-Jun-28 17:00N 26°60' W 014°35'  

Dump ship's entire track history